sensor_id;sensor_type;location;lat;lon;timestamp;P1;durP1;ratioP1;P2;durP2;ratioP2
25990;SDS011;13779;-33.886;151.198;2024-03-02T00:00:22;40.20;;;8.85;;
25990;SDS011;13779;-33.886;151.198;2024-03-02T00:02:54;42.88;;;8.90;;
25990;SDS011;13779;-33.886;151.198;2024-03-02T00:05:25;39.90;;;8.63;;
25990;SDS011;13779;-33.886;151.198;2024-03-02T00:07:58;43.40;;;8.60;;
25990;SDS011;13779;-33.886;151.198;2024-03-02T00:10:35;46.50;;;9.13;;
25990;SDS011;13779;-33.886;151.198;2024-03-02T00:13:10;40.10;;;8.23;;
25990;SDS011;13779;-33.886;151.198;2024-03-02T00:15:47;42.65;;;9.65;;
25990;SDS011;13779;-33.886;151.198;2024-03-02T00:20:56;37.80;;;8.10;;
25990;SDS011;13779;-33.886;151.198;2024-03-02T00:23:29;36.97;;;7.63;;
25990;SDS011;13779;-33.886;151.198;2024-03-02T00:26:00;34.85;;;6.85;;
25990;SDS011;13779;-33.886;151.198;2024-03-02T00:33:39;36.35;;;7.45;;
25990;SDS011;13779;-33.886;151.198;2024-03-02T00:36:12;33.35;;;6.75;;
25990;SDS011;13779;-33.886;151.198;2024-03-02T00:38:48;38.10;;;7.78;;
25990;SDS011;13779;-33.886;151.198;2024-03-02T00:41:26;41.00;;;7.72;;
25990;SDS011;13779;-33.886;151.198;2024-03-02T00:44:01;37.53;;;7.95;;
25990;SDS011;13779;-33.886;151.198;2024-03-02T00:46:38;34.75;;;7.50;;
25990;SDS011;13779;-33.886;151.198;2024-03-02T00:51:48;33.90;;;6.57;;
25990;SDS011;13779;-33.886;151.198;2024-03-02T00:54:21;35.78;;;6.50;;
25990;SDS011;13779;-33.886;151.198;2024-03-02T00:56:54;31.08;;;7.18;;
25990;SDS011;13779;-33.886;151.198;2024-03-02T00:59:25;29.10;;;6.30;;
25990;SDS011;13779;-33.886;151.198;2024-03-02T01:01:55;34.80;;;6.45;;
25990;SDS011;13779;-33.886;151.198;2024-03-02T01:04:25;28.15;;;6.22;;
25990;SDS011;13779;-33.886;151.198;2024-03-02T01:06:55;42.60;;;10.03;;
25990;SDS011;13779;-33.886;151.198;2024-03-02T01:09:27;34.92;;;6.28;;
25990;SDS011;13779;-33.886;151.198;2024-03-02T01:11:57;27.25;;;5.38;;
25990;SDS011;13779;-33.886;151.198;2024-03-02T01:14:27;28.48;;;5.85;;
25990;SDS011;13779;-33.886;151.198;2024-03-02T01:16:58;26.80;;;5.90;;
25990;SDS011;13779;-33.886;151.198;2024-03-02T01:19:28;37.33;;;6.13;;
25990;SDS011;13779;-33.886;151.198;2024-03-02T01:21:58;33.25;;;6.40;;
25990;SDS011;13779;-33.886;151.198;2024-03-02T01:24:28;38.27;;;6.53;;
25990;SDS011;13779;-33.886;151.198;2024-03-02T01:26:59;36.50;;;7.60;;
25990;SDS011;13779;-33.886;151.198;2024-03-02T01:29:29;30.33;;;7.00;;
25990;SDS011;13779;-33.886;151.198;2024-03-02T01:32:01;32.17;;;6.68;;
25990;SDS011;13779;-33.886;151.198;2024-03-02T01:34:31;33.72;;;7.82;;
25990;SDS011;13779;-33.886;151.198;2024-03-02T01:37:01;37.43;;;6.37;;
25990;SDS011;13779;-33.886;151.198;2024-03-02T01:39:32;36.40;;;7.95;;
25990;SDS011;13779;-33.886;151.198;2024-03-02T01:42:02;32.50;;;7.05;;
25990;SDS011;13779;-33.886;151.198;2024-03-02T01:44:32;31.08;;;6.88;;
25990;SDS011;13779;-33.886;151.198;2024-03-02T01:47:02;33.00;;;6.83;;
25990;SDS011;13779;-33.886;151.198;2024-03-02T01:49:33;32.50;;;6.22;;
25990;SDS011;13779;-33.886;151.198;2024-03-02T01:52:04;35.95;;;7.85;;
25990;SDS011;13779;-33.886;151.198;2024-03-02T01:54:34;31.58;;;6.22;;
25990;SDS011;13779;-33.886;151.198;2024-03-02T01:57:04;34.33;;;7.57;;
25990;SDS011;13779;-33.886;151.198;2024-03-02T01:59:35;29.48;;;6.25;;
25990;SDS011;13779;-33.886;151.198;2024-03-02T02:02:05;43.00;;;14.53;;
25990;SDS011;13779;-33.886;151.198;2024-03-02T02:04:36;36.45;;;9.35;;
25990;SDS011;13779;-33.886;151.198;2024-03-02T02:07:06;33.90;;;7.07;;
25990;SDS011;13779;-33.886;151.198;2024-03-02T02:09:36;29.87;;;7.23;;
25990;SDS011;13779;-33.886;151.198;2024-03-02T02:12:06;29.50;;;7.53;;
25990;SDS011;13779;-33.886;151.198;2024-03-02T02:14:37;30.35;;;7.60;;
25990;SDS011;13779;-33.886;151.198;2024-03-02T02:17:08;32.72;;;5.68;;
25990;SDS011;13779;-33.886;151.198;2024-03-02T02:19:40;32.47;;;6.73;;
25990;SDS011;13779;-33.886;151.198;2024-03-02T02:22:10;31.20;;;6.72;;
25990;SDS011;13779;-33.886;151.198;2024-03-02T02:24:41;28.13;;;5.72;;
25990;SDS011;13779;-33.886;151.198;2024-03-02T02:27:11;29.42;;;6.60;;
25990;SDS011;13779;-33.886;151.198;2024-03-02T02:29:43;30.25;;;7.15;;
25990;SDS011;13779;-33.886;151.198;2024-03-02T02:32:14;33.47;;;7.47;;
25990;SDS011;13779;-33.886;151.198;2024-03-02T02:34:44;36.17;;;8.85;;
25990;SDS011;13779;-33.886;151.198;2024-03-02T02:37:14;36.45;;;10.48;;
25990;SDS011;13779;-33.886;151.198;2024-03-02T02:39:44;34.20;;;10.50;;
25990;SDS011;13779;-33.886;151.198;2024-03-02T02:42:15;27.42;;;6.95;;
25990;SDS011;13779;-33.886;151.198;2024-03-02T02:44:45;28.92;;;7.53;;
25990;SDS011;13779;-33.886;151.198;2024-03-02T02:47:16;23.27;;;7.32;;
25990;SDS011;13779;-33.886;151.198;2024-03-02T02:49:47;33.50;;;7.82;;
25990;SDS011;13779;-33.886;151.198;2024-03-02T02:52:17;26.63;;;7.18;;
25990;SDS011;13779;-33.886;151.198;2024-03-02T02:54:49;33.72;;;7.70;;
25990;SDS011;13779;-33.886;151.198;2024-03-02T02:57:21;28.27;;;7.65;;
25990;SDS011;13779;-33.886;151.198;2024-03-02T02:59:51;25.35;;;7.72;;
25990;SDS011;13779;-33.886;151.198;2024-03-02T03:02:22;36.47;;;8.70;;
25990;SDS011;13779;-33.886;151.198;2024-03-02T03:04:52;32.00;;;8.85;;
25990;SDS011;13779;-33.886;151.198;2024-03-02T03:07:25;27.77;;;8.90;;
25990;SDS011;13779;-33.886;151.198;2024-03-02T03:09:56;33.63;;;8.63;;
25990;SDS011;13779;-33.886;151.198;2024-03-02T03:12:26;32.72;;;8.15;;
25990;SDS011;13779;-33.886;151.198;2024-03-02T03:14:58;27.10;;;9.20;;
25990;SDS011;13779;-33.886;151.198;2024-03-02T03:17:29;33.55;;;8.00;;
25990;SDS011;13779;-33.886;151.198;2024-03-02T03:20:00;33.45;;;9.07;;
25990;SDS011;13779;-33.886;151.198;2024-03-02T03:22:32;31.80;;;8.88;;
25990;SDS011;13779;-33.886;151.198;2024-03-02T03:27:33;28.23;;;8.63;;
25990;SDS011;13779;-33.886;151.198;2024-03-02T03:30:04;30.58;;;7.10;;
25990;SDS011;13779;-33.886;151.198;2024-03-02T03:35:05;25.98;;;7.88;;
25990;SDS011;13779;-33.886;151.198;2024-03-02T03:37:37;26.90;;;8.13;;
25990;SDS011;13779;-33.886;151.198;2024-03-02T03:40:08;28.30;;;7.32;;
25990;SDS011;13779;-33.886;151.198;2024-03-02T03:42:42;27.70;;;7.90;;
25990;SDS011;13779;-33.886;151.198;2024-03-02T03:45:13;33.42;;;13.02;;
25990;SDS011;13779;-33.886;151.198;2024-03-02T03:47:44;28.90;;;8.77;;
25990;SDS011;13779;-33.886;151.198;2024-03-02T03:50:15;43.03;;;23.65;;
25990;SDS011;13779;-33.886;151.198;2024-03-02T03:52:45;29.42;;;8.40;;
25990;SDS011;13779;-33.886;151.198;2024-03-02T03:55:15;26.57;;;7.47;;
25990;SDS011;13779;-33.886;151.198;2024-03-02T03:57:45;33.63;;;8.20;;
25990;SDS011;13779;-33.886;151.198;2024-03-02T04:00:15;25.27;;;7.07;;
25990;SDS011;13779;-33.886;151.198;2024-03-02T04:02:46;29.52;;;7.95;;
25990;SDS011;13779;-33.886;151.198;2024-03-02T04:05:16;31.03;;;7.00;;
25990;SDS011;13779;-33.886;151.198;2024-03-02T04:07:46;19.17;;;6.72;;
25990;SDS011;13779;-33.886;151.198;2024-03-02T04:10:16;28.13;;;7.47;;
25990;SDS011;13779;-33.886;151.198;2024-03-02T04:12:49;31.45;;;7.97;;
25990;SDS011;13779;-33.886;151.198;2024-03-02T04:15:19;24.47;;;7.00;;
25990;SDS011;13779;-33.886;151.198;2024-03-02T04:17:51;27.73;;;6.80;;
25990;SDS011;13779;-33.886;151.198;2024-03-02T04:20:21;36.15;;;6.88;;
25990;SDS011;13779;-33.886;151.198;2024-03-02T04:22:51;32.37;;;6.93;;
25990;SDS011;13779;-33.886;151.198;2024-03-02T04:25:22;29.50;;;6.90;;
25990;SDS011;13779;-33.886;151.198;2024-03-02T04:27:52;20.33;;;5.82;;
25990;SDS011;13779;-33.886;151.198;2024-03-02T04:30:22;24.23;;;6.45;;
25990;SDS011;13779;-33.886;151.198;2024-03-02T04:32:53;23.10;;;6.30;;
25990;SDS011;13779;-33.886;151.198;2024-03-02T04:35:24;26.75;;;6.22;;
25990;SDS011;13779;-33.886;151.198;2024-03-02T04:37:54;21.33;;;5.78;;
25990;SDS011;13779;-33.886;151.198;2024-03-02T04:40:24;15.60;;;5.27;;
25990;SDS011;13779;-33.886;151.198;2024-03-02T04:42:54;24.45;;;7.90;;
25990;SDS011;13779;-33.886;151.198;2024-03-02T04:45:25;21.33;;;5.87;;
25990;SDS011;13779;-33.886;151.198;2024-03-02T04:47:55;26.98;;;8.73;;
25990;SDS011;13779;-33.886;151.198;2024-03-02T04:50:27;24.55;;;6.68;;
25990;SDS011;13779;-33.886;151.198;2024-03-02T04:52:57;27.75;;;6.47;;
25990;SDS011;13779;-33.886;151.198;2024-03-02T04:55:28;23.17;;;5.65;;
25990;SDS011;13779;-33.886;151.198;2024-03-02T04:58:07;24.90;;;5.68;;
25990;SDS011;13779;-33.886;151.198;2024-03-02T05:00:38;25.05;;;5.18;;
25990;SDS011;13779;-33.886;151.198;2024-03-02T05:03:09;25.58;;;5.47;;
25990;SDS011;13779;-33.886;151.198;2024-03-02T05:05:39;29.58;;;6.07;;
25990;SDS011;13779;-33.886;151.198;2024-03-02T05:08:10;37.63;;;13.70;;
25990;SDS011;13779;-33.886;151.198;2024-03-02T05:10:40;20.63;;;5.90;;
25990;SDS011;13779;-33.886;151.198;2024-03-02T05:13:11;24.50;;;5.20;;
25990;SDS011;13779;-33.886;151.198;2024-03-02T05:15:41;26.23;;;4.90;;
25990;SDS011;13779;-33.886;151.198;2024-03-02T05:18:12;19.23;;;4.97;;
25990;SDS011;13779;-33.886;151.198;2024-03-02T05:20:43;23.20;;;4.60;;
25990;SDS011;13779;-33.886;151.198;2024-03-02T05:23:14;30.63;;;5.78;;
25990;SDS011;13779;-33.886;151.198;2024-03-02T05:25:44;19.92;;;4.57;;
25990;SDS011;13779;-33.886;151.198;2024-03-02T05:28:15;25.67;;;4.88;;
25990;SDS011;13779;-33.886;151.198;2024-03-02T05:30:46;28.33;;;4.72;;
25990;SDS011;13779;-33.886;151.198;2024-03-02T05:33:16;25.63;;;4.85;;
25990;SDS011;13779;-33.886;151.198;2024-03-02T05:35:48;25.48;;;5.80;;
25990;SDS011;13779;-33.886;151.198;2024-03-02T05:38:18;31.00;;;5.60;;
25990;SDS011;13779;-33.886;151.198;2024-03-02T05:40:50;24.13;;;4.88;;
25990;SDS011;13779;-33.886;151.198;2024-03-02T05:43:21;24.75;;;4.80;;
25990;SDS011;13779;-33.886;151.198;2024-03-02T05:45:51;20.33;;;4.57;;
25990;SDS011;13779;-33.886;151.198;2024-03-02T05:48:22;19.63;;;4.50;;
25990;SDS011;13779;-33.886;151.198;2024-03-02T05:50:53;22.20;;;5.45;;
25990;SDS011;13779;-33.886;151.198;2024-03-02T05:53:25;26.45;;;5.53;;
25990;SDS011;13779;-33.886;151.198;2024-03-02T05:55:55;20.63;;;5.20;;
25990;SDS011;13779;-33.886;151.198;2024-03-02T05:58:28;21.50;;;5.40;;
25990;SDS011;13779;-33.886;151.198;2024-03-02T06:01:17;30.15;;;5.20;;
25990;SDS011;13779;-33.886;151.198;2024-03-02T06:03:48;22.70;;;5.15;;
25990;SDS011;13779;-33.886;151.198;2024-03-02T06:06:18;17.15;;;5.13;;
25990;SDS011;13779;-33.886;151.198;2024-03-02T06:11:19;19.67;;;5.05;;
25990;SDS011;13779;-33.886;151.198;2024-03-02T06:13:50;15.52;;;4.43;;
25990;SDS011;13779;-33.886;151.198;2024-03-02T06:16:21;23.67;;;4.75;;
25990;SDS011;13779;-33.886;151.198;2024-03-02T06:18:51;20.80;;;4.57;;
25990;SDS011;13779;-33.886;151.198;2024-03-02T06:23:53;22.77;;;5.13;;
25990;SDS011;13779;-33.886;151.198;2024-03-02T06:28:54;24.55;;;5.60;;
25990;SDS011;13779;-33.886;151.198;2024-03-02T06:31:24;21.15;;;5.28;;
25990;SDS011;13779;-33.886;151.198;2024-03-02T06:33:55;25.30;;;4.50;;
25990;SDS011;13779;-33.886;151.198;2024-03-02T06:36:26;22.55;;;6.18;;
25990;SDS011;13779;-33.886;151.198;2024-03-02T06:38:57;19.98;;;4.93;;
25990;SDS011;13779;-33.886;151.198;2024-03-02T06:41:27;25.23;;;5.68;;
25990;SDS011;13779;-33.886;151.198;2024-03-02T06:43:59;21.35;;;5.20;;
25990;SDS011;13779;-33.886;151.198;2024-03-02T06:46:30;22.33;;;4.78;;
25990;SDS011;13779;-33.886;151.198;2024-03-02T06:49:01;30.67;;;5.47;;
25990;SDS011;13779;-33.886;151.198;2024-03-02T06:51:33;26.38;;;5.22;;
25990;SDS011;13779;-33.886;151.198;2024-03-02T06:54:04;26.80;;;5.70;;
25990;SDS011;13779;-33.886;151.198;2024-03-02T06:56:35;18.30;;;4.35;;
25990;SDS011;13779;-33.886;151.198;2024-03-02T06:59:07;23.35;;;4.95;;
25990;SDS011;13779;-33.886;151.198;2024-03-02T07:01:37;24.10;;;5.03;;
25990;SDS011;13779;-33.886;151.198;2024-03-02T07:04:09;21.10;;;4.70;;
25990;SDS011;13779;-33.886;151.198;2024-03-02T07:06:39;25.05;;;4.85;;
25990;SDS011;13779;-33.886;151.198;2024-03-02T07:09:10;16.92;;;4.18;;
25990;SDS011;13779;-33.886;151.198;2024-03-02T07:11:41;23.08;;;4.53;;
25990;SDS011;13779;-33.886;151.198;2024-03-02T07:14:13;23.20;;;4.75;;
25990;SDS011;13779;-33.886;151.198;2024-03-02T07:16:44;23.33;;;4.53;;
25990;SDS011;13779;-33.886;151.198;2024-03-02T07:19:14;28.92;;;5.43;;
25990;SDS011;13779;-33.886;151.198;2024-03-02T07:24:15;23.65;;;4.55;;
25990;SDS011;13779;-33.886;151.198;2024-03-02T07:26:46;26.30;;;4.07;;
25990;SDS011;13779;-33.886;151.198;2024-03-02T07:29:19;20.45;;;4.18;;
25990;SDS011;13779;-33.886;151.198;2024-03-02T07:31:50;23.63;;;4.40;;
25990;SDS011;13779;-33.886;151.198;2024-03-02T07:34:21;18.80;;;3.45;;
25990;SDS011;13779;-33.886;151.198;2024-03-02T07:36:52;16.77;;;3.72;;
25990;SDS011;13779;-33.886;151.198;2024-03-02T07:39:27;20.13;;;4.10;;
25990;SDS011;13779;-33.886;151.198;2024-03-02T07:42:01;18.92;;;4.07;;
25990;SDS011;13779;-33.886;151.198;2024-03-02T07:44:31;12.15;;;3.35;;
25990;SDS011;13779;-33.886;151.198;2024-03-02T07:47:02;14.40;;;3.20;;
25990;SDS011;13779;-33.886;151.198;2024-03-02T07:49:35;16.40;;;4.22;;
25990;SDS011;13779;-33.886;151.198;2024-03-02T07:52:06;15.40;;;3.42;;
25990;SDS011;13779;-33.886;151.198;2024-03-02T07:54:36;15.00;;;2.97;;
25990;SDS011;13779;-33.886;151.198;2024-03-02T07:57:07;13.32;;;3.83;;
25990;SDS011;13779;-33.886;151.198;2024-03-02T07:59:37;17.88;;;3.55;;
25990;SDS011;13779;-33.886;151.198;2024-03-02T08:02:08;17.58;;;4.05;;
25990;SDS011;13779;-33.886;151.198;2024-03-02T08:04:39;23.88;;;3.60;;
25990;SDS011;13779;-33.886;151.198;2024-03-02T08:07:10;28.80;;;4.10;;
25990;SDS011;13779;-33.886;151.198;2024-03-02T08:09:41;20.05;;;4.18;;
25990;SDS011;13779;-33.886;151.198;2024-03-02T08:12:12;17.15;;;3.38;;
25990;SDS011;13779;-33.886;151.198;2024-03-02T08:14:42;22.23;;;3.55;;
25990;SDS011;13779;-33.886;151.198;2024-03-02T08:17:13;18.10;;;3.95;;
25990;SDS011;13779;-33.886;151.198;2024-03-02T08:19:44;20.83;;;5.38;;
25990;SDS011;13779;-33.886;151.198;2024-03-02T08:22:16;20.27;;;9.02;;
25990;SDS011;13779;-33.886;151.198;2024-03-02T08:24:48;17.42;;;4.03;;
25990;SDS011;13779;-33.886;151.198;2024-03-02T08:27:18;16.65;;;4.38;;
25990;SDS011;13779;-33.886;151.198;2024-03-02T08:29:49;16.48;;;4.28;;
25990;SDS011;13779;-33.886;151.198;2024-03-02T08:32:20;19.95;;;3.10;;
25990;SDS011;13779;-33.886;151.198;2024-03-02T08:34:51;18.30;;;3.50;;
25990;SDS011;13779;-33.886;151.198;2024-03-02T08:37:22;22.92;;;5.85;;
25990;SDS011;13779;-33.886;151.198;2024-03-02T08:39:54;20.50;;;4.18;;
25990;SDS011;13779;-33.886;151.198;2024-03-02T08:42:27;18.38;;;4.25;;
25990;SDS011;13779;-33.886;151.198;2024-03-02T08:44:57;19.33;;;3.95;;
25990;SDS011;13779;-33.886;151.198;2024-03-02T08:47:30;21.52;;;4.55;;
25990;SDS011;13779;-33.886;151.198;2024-03-02T08:50:01;20.52;;;4.43;;
25990;SDS011;13779;-33.886;151.198;2024-03-02T08:52:33;15.40;;;3.15;;
25990;SDS011;13779;-33.886;151.198;2024-03-02T08:55:04;17.92;;;3.47;;
25990;SDS011;13779;-33.886;151.198;2024-03-02T08:57:35;18.05;;;4.00;;
25990;SDS011;13779;-33.886;151.198;2024-03-02T09:00:06;13.95;;;3.40;;
25990;SDS011;13779;-33.886;151.198;2024-03-02T09:05:07;17.02;;;3.83;;
25990;SDS011;13779;-33.886;151.198;2024-03-02T09:07:38;19.65;;;3.38;;
25990;SDS011;13779;-33.886;151.198;2024-03-02T09:10:09;21.17;;;3.55;;
25990;SDS011;13779;-33.886;151.198;2024-03-02T09:12:39;19.77;;;3.95;;
25990;SDS011;13779;-33.886;151.198;2024-03-02T09:15:10;16.92;;;3.78;;
25990;SDS011;13779;-33.886;151.198;2024-03-02T09:17:41;16.52;;;2.92;;
25990;SDS011;13779;-33.886;151.198;2024-03-02T09:20:12;14.27;;;3.20;;
25990;SDS011;13779;-33.886;151.198;2024-03-02T09:22:42;21.00;;;3.85;;
25990;SDS011;13779;-33.886;151.198;2024-03-02T09:25:16;25.35;;;4.45;;
25990;SDS011;13779;-33.886;151.198;2024-03-02T09:27:46;22.73;;;4.03;;
25990;SDS011;13779;-33.886;151.198;2024-03-02T09:30:17;17.08;;;3.90;;
25990;SDS011;13779;-33.886;151.198;2024-03-02T09:32:47;21.27;;;4.38;;
25990;SDS011;13779;-33.886;151.198;2024-03-02T09:35:18;19.70;;;3.58;;
25990;SDS011;13779;-33.886;151.198;2024-03-02T09:37:49;16.05;;;3.22;;
25990;SDS011;13779;-33.886;151.198;2024-03-02T09:40:21;20.27;;;4.30;;
25990;SDS011;13779;-33.886;151.198;2024-03-02T09:42:52;24.23;;;3.88;;
25990;SDS011;13779;-33.886;151.198;2024-03-02T09:45:25;15.43;;;3.38;;
25990;SDS011;13779;-33.886;151.198;2024-03-02T09:47:55;18.40;;;3.10;;
25990;SDS011;13779;-33.886;151.198;2024-03-02T09:50:26;23.63;;;3.90;;
25990;SDS011;13779;-33.886;151.198;2024-03-02T09:52:57;18.33;;;3.85;;
25990;SDS011;13779;-33.886;151.198;2024-03-02T09:55:29;20.55;;;3.08;;
25990;SDS011;13779;-33.886;151.198;2024-03-02T09:57:59;12.27;;;2.75;;
25990;SDS011;13779;-33.886;151.198;2024-03-02T10:00:30;15.38;;;3.03;;
25990;SDS011;13779;-33.886;151.198;2024-03-02T10:03:02;16.77;;;3.92;;
25990;SDS011;13779;-33.886;151.198;2024-03-02T10:05:34;19.33;;;4.40;;
25990;SDS011;13779;-33.886;151.198;2024-03-02T10:08:04;17.38;;;3.97;;
25990;SDS011;13779;-33.886;151.198;2024-03-02T10:10:36;16.45;;;3.30;;
25990;SDS011;13779;-33.886;151.198;2024-03-02T10:13:13;16.08;;;3.00;;
25990;SDS011;13779;-33.886;151.198;2024-03-02T10:15:45;12.48;;;3.22;;
25990;SDS011;13779;-33.886;151.198;2024-03-02T10:18:15;16.17;;;3.10;;
25990;SDS011;13779;-33.886;151.198;2024-03-02T10:21:12;19.90;;;3.15;;
25990;SDS011;13779;-33.886;151.198;2024-03-02T10:23:44;18.42;;;4.07;;
25990;SDS011;13779;-33.886;151.198;2024-03-02T10:26:17;17.42;;;3.42;;
25990;SDS011;13779;-33.886;151.198;2024-03-02T10:28:48;15.65;;;3.45;;
25990;SDS011;13779;-33.886;151.198;2024-03-02T10:31:20;19.48;;;3.17;;
25990;SDS011;13779;-33.886;151.198;2024-03-02T10:33:55;12.20;;;2.40;;
25990;SDS011;13779;-33.886;151.198;2024-03-02T10:36:29;18.02;;;3.22;;
25990;SDS011;13779;-33.886;151.198;2024-03-02T10:38:59;19.98;;;3.28;;
25990;SDS011;13779;-33.886;151.198;2024-03-02T10:41:35;18.25;;;3.05;;
25990;SDS011;13779;-33.886;151.198;2024-03-02T10:44:09;18.83;;;3.42;;
25990;SDS011;13779;-33.886;151.198;2024-03-02T10:46:41;20.55;;;3.78;;
25990;SDS011;13779;-33.886;151.198;2024-03-02T10:49:13;22.38;;;3.47;;
25990;SDS011;13779;-33.886;151.198;2024-03-02T10:51:44;17.25;;;3.03;;
25990;SDS011;13779;-33.886;151.198;2024-03-02T10:54:14;24.70;;;3.60;;
25990;SDS011;13779;-33.886;151.198;2024-03-02T10:56:44;14.98;;;4.28;;
25990;SDS011;13779;-33.886;151.198;2024-03-02T11:02:02;22.08;;;4.25;;
25990;SDS011;13779;-33.886;151.198;2024-03-02T11:04:35;20.98;;;4.07;;
25990;SDS011;13779;-33.886;151.198;2024-03-02T11:07:08;20.75;;;3.60;;
25990;SDS011;13779;-33.886;151.198;2024-03-02T11:09:49;16.55;;;3.22;;
25990;SDS011;13779;-33.886;151.198;2024-03-02T11:17:29;15.95;;;2.80;;
25990;SDS011;13779;-33.886;151.198;2024-03-02T11:19:59;21.77;;;3.38;;
25990;SDS011;13779;-33.886;151.198;2024-03-02T11:22:31;23.30;;;3.60;;
25990;SDS011;13779;-33.886;151.198;2024-03-02T11:25:02;19.73;;;3.60;;
25990;SDS011;13779;-33.886;151.198;2024-03-02T11:35:40;25.83;;;4.22;;
25990;SDS011;13779;-33.886;151.198;2024-03-02T11:38:14;22.15;;;3.97;;
25990;SDS011;13779;-33.886;151.198;2024-03-02T11:40:44;19.17;;;3.53;;
25990;SDS011;13779;-33.886;151.198;2024-03-02T11:43:14;22.30;;;4.22;;
25990;SDS011;13779;-33.886;151.198;2024-03-02T11:45:44;18.40;;;3.25;;
25990;SDS011;13779;-33.886;151.198;2024-03-02T11:48:15;16.58;;;2.95;;
25990;SDS011;13779;-33.886;151.198;2024-03-02T11:53:20;24.50;;;8.15;;
25990;SDS011;13779;-33.886;151.198;2024-03-02T11:55:51;23.20;;;6.88;;
25990;SDS011;13779;-33.886;151.198;2024-03-02T11:58:24;20.52;;;5.15;;
25990;SDS011;13779;-33.886;151.198;2024-03-02T12:00:56;17.58;;;3.40;;
25990;SDS011;13779;-33.886;151.198;2024-03-02T12:03:27;15.05;;;3.63;;
25990;SDS011;13779;-33.886;151.198;2024-03-02T12:05:57;18.77;;;4.30;;
25990;SDS011;13779;-33.886;151.198;2024-03-02T12:08:28;22.20;;;2.78;;
25990;SDS011;13779;-33.886;151.198;2024-03-02T12:10:59;19.75;;;3.10;;
25990;SDS011;13779;-33.886;151.198;2024-03-02T12:13:31;16.33;;;4.97;;
25990;SDS011;13779;-33.886;151.198;2024-03-02T12:16:02;17.83;;;3.50;;
25990;SDS011;13779;-33.886;151.198;2024-03-02T12:18:33;18.58;;;4.47;;
25990;SDS011;13779;-33.886;151.198;2024-03-02T12:23:37;15.32;;;3.90;;
25990;SDS011;13779;-33.886;151.198;2024-03-02T12:26:07;17.52;;;3.95;;
25990;SDS011;13779;-33.886;151.198;2024-03-02T12:28:37;26.07;;;4.53;;
25990;SDS011;13779;-33.886;151.198;2024-03-02T12:31:08;23.98;;;4.63;;
25990;SDS011;13779;-33.886;151.198;2024-03-02T12:33:38;17.07;;;3.30;;
25990;SDS011;13779;-33.886;151.198;2024-03-02T12:36:10;17.60;;;3.55;;
25990;SDS011;13779;-33.886;151.198;2024-03-02T12:38:45;20.08;;;4.15;;
25990;SDS011;13779;-33.886;151.198;2024-03-02T12:41:15;19.33;;;3.92;;
25990;SDS011;13779;-33.886;151.198;2024-03-02T12:43:46;24.70;;;4.35;;
25990;SDS011;13779;-33.886;151.198;2024-03-02T12:46:16;19.07;;;3.60;;
25990;SDS011;13779;-33.886;151.198;2024-03-02T12:48:46;16.67;;;3.40;;
25990;SDS011;13779;-33.886;151.198;2024-03-02T12:51:17;15.60;;;3.45;;
25990;SDS011;13779;-33.886;151.198;2024-03-02T12:54:08;15.17;;;3.13;;
25990;SDS011;13779;-33.886;151.198;2024-03-02T12:56:38;19.98;;;3.97;;
25990;SDS011;13779;-33.886;151.198;2024-03-02T12:59:20;16.35;;;3.28;;
25990;SDS011;13779;-33.886;151.198;2024-03-02T13:01:55;16.42;;;3.22;;
25990;SDS011;13779;-33.886;151.198;2024-03-02T13:04:27;16.55;;;3.72;;
25990;SDS011;13779;-33.886;151.198;2024-03-02T13:06:58;12.98;;;3.40;;
25990;SDS011;13779;-33.886;151.198;2024-03-02T13:09:30;23.20;;;4.00;;
25990;SDS011;13779;-33.886;151.198;2024-03-02T13:12:02;17.08;;;3.47;;
25990;SDS011;13779;-33.886;151.198;2024-03-02T13:14:32;19.02;;;3.70;;
25990;SDS011;13779;-33.886;151.198;2024-03-02T13:17:03;22.05;;;3.53;;
25990;SDS011;13779;-33.886;151.198;2024-03-02T13:19:34;17.15;;;3.95;;
25990;SDS011;13779;-33.886;151.198;2024-03-02T13:22:04;20.13;;;4.00;;
25990;SDS011;13779;-33.886;151.198;2024-03-02T13:24:34;17.48;;;4.32;;
25990;SDS011;13779;-33.886;151.198;2024-03-02T13:27:05;17.23;;;3.40;;
25990;SDS011;13779;-33.886;151.198;2024-03-02T13:29:35;20.02;;;4.07;;
25990;SDS011;13779;-33.886;151.198;2024-03-02T13:32:06;16.53;;;3.50;;
25990;SDS011;13779;-33.886;151.198;2024-03-02T13:34:38;20.15;;;4.18;;
25990;SDS011;13779;-33.886;151.198;2024-03-02T13:37:08;19.70;;;3.33;;
25990;SDS011;13779;-33.886;151.198;2024-03-02T13:39:39;17.85;;;3.83;;
25990;SDS011;13779;-33.886;151.198;2024-03-02T13:42:10;21.00;;;3.78;;
25990;SDS011;13779;-33.886;151.198;2024-03-02T13:44:45;18.23;;;4.03;;
25990;SDS011;13779;-33.886;151.198;2024-03-02T13:47:18;17.08;;;4.32;;
25990;SDS011;13779;-33.886;151.198;2024-03-02T13:49:50;17.27;;;3.17;;
25990;SDS011;13779;-33.886;151.198;2024-03-02T13:54:50;15.98;;;3.40;;
25990;SDS011;13779;-33.886;151.198;2024-03-02T13:57:24;18.30;;;2.97;;
25990;SDS011;13779;-33.886;151.198;2024-03-02T13:59:55;19.50;;;3.47;;
25990;SDS011;13779;-33.886;151.198;2024-03-02T14:02:25;18.02;;;3.45;;
25990;SDS011;13779;-33.886;151.198;2024-03-02T14:04:56;19.17;;;3.58;;
25990;SDS011;13779;-33.886;151.198;2024-03-02T14:07:26;19.13;;;3.63;;
25990;SDS011;13779;-33.886;151.198;2024-03-02T14:09:57;22.50;;;4.35;;
25990;SDS011;13779;-33.886;151.198;2024-03-02T14:12:27;19.63;;;3.50;;
25990;SDS011;13779;-33.886;151.198;2024-03-02T14:14:59;16.23;;;3.40;;
25990;SDS011;13779;-33.886;151.198;2024-03-02T14:17:31;18.85;;;3.75;;
25990;SDS011;13779;-33.886;151.198;2024-03-02T14:20:01;22.13;;;3.70;;
25990;SDS011;13779;-33.886;151.198;2024-03-02T14:22:33;16.88;;;4.22;;
25990;SDS011;13779;-33.886;151.198;2024-03-02T14:25:06;20.83;;;5.07;;
25990;SDS011;13779;-33.886;151.198;2024-03-02T14:27:37;20.38;;;5.13;;
25990;SDS011;13779;-33.886;151.198;2024-03-02T14:30:16;16.25;;;4.50;;
25990;SDS011;13779;-33.886;151.198;2024-03-02T14:32:47;17.00;;;3.45;;
25990;SDS011;13779;-33.886;151.198;2024-03-02T14:35:18;14.85;;;4.07;;
25990;SDS011;13779;-33.886;151.198;2024-03-02T14:37:51;15.65;;;3.42;;
25990;SDS011;13779;-33.886;151.198;2024-03-02T14:40:22;20.15;;;3.72;;
25990;SDS011;13779;-33.886;151.198;2024-03-02T14:42:55;24.75;;;6.60;;
25990;SDS011;13779;-33.886;151.198;2024-03-02T14:45:26;16.83;;;3.75;;
25990;SDS011;13779;-33.886;151.198;2024-03-02T14:47:56;17.48;;;4.68;;
25990;SDS011;13779;-33.886;151.198;2024-03-02T14:50:30;15.88;;;3.40;;
25990;SDS011;13779;-33.886;151.198;2024-03-02T14:53:02;15.85;;;3.72;;
25990;SDS011;13779;-33.886;151.198;2024-03-02T14:55:35;17.90;;;3.40;;
25990;SDS011;13779;-33.886;151.198;2024-03-02T14:58:06;21.27;;;4.00;;
25990;SDS011;13779;-33.886;151.198;2024-03-02T15:00:37;15.75;;;3.42;;
25990;SDS011;13779;-33.886;151.198;2024-03-02T15:03:07;24.02;;;3.90;;
25990;SDS011;13779;-33.886;151.198;2024-03-02T15:05:38;14.48;;;3.20;;
25990;SDS011;13779;-33.886;151.198;2024-03-02T15:08:08;19.65;;;3.50;;
25990;SDS011;13779;-33.886;151.198;2024-03-02T15:10:39;15.45;;;3.92;;